sensor_id;sensor_type;location;lat;lon;timestamp;P1;durP1;ratioP1;P2;durP2;ratioP2
1436;SDS011;712;51.026;13.792;2023-06-14T00:02:13;4.35;;;1.50;;
1436;SDS011;712;51.026;13.792;2023-06-14T00:04:39;5.97;;;1.83;;
1436;SDS011;712;51.026;13.792;2023-06-14T00:07:06;5.65;;;2.03;;
1436;SDS011;712;51.026;13.792;2023-06-14T00:09:33;6.00;;;1.92;;
1436;SDS011;712;51.026;13.792;2023-06-14T00:11:58;5.07;;;1.93;;
1436;SDS011;712;51.026;13.792;2023-06-14T00:14:23;5.07;;;1.80;;
1436;SDS011;712;51.026;13.792;2023-06-14T00:16:49;4.47;;;1.80;;
1436;SDS011;712;51.026;13.792;2023-06-14T00:19:14;5.60;;;1.92;;
1436;SDS011;712;51.026;13.792;2023-06-14T00:21:39;5.17;;;1.60;;
1436;SDS011;712;51.026;13.792;2023-06-14T00:24:04;4.18;;;1.80;;
1436;SDS011;712;51.026;13.792;2023-06-14T00:26:29;4.75;;;1.90;;
1436;SDS011;712;51.026;13.792;2023-06-14T00:28:55;3.80;;;1.40;;
1436;SDS011;712;51.026;13.792;2023-06-14T00:31:21;4.50;;;1.60;;
1436;SDS011;712;51.026;13.792;2023-06-14T00:33:46;4.13;;;1.73;;
1436;SDS011;712;51.026;13.792;2023-06-14T00:36:11;4.30;;;1.80;;
1436;SDS011;712;51.026;13.792;2023-06-14T00:38:37;4.37;;;1.70;;
1436;SDS011;712;51.026;13.792;2023-06-14T00:41:02;6.40;;;2.00;;
1436;SDS011;712;51.026;13.792;2023-06-14T00:43:27;5.47;;;1.77;;
1436;SDS011;712;51.026;13.792;2023-06-14T00:45:52;7.55;;;2.08;;
1436;SDS011;712;51.026;13.792;2023-06-14T00:48:17;4.88;;;1.80;;
1436;SDS011;712;51.026;13.792;2023-06-14T00:50:43;4.30;;;1.80;;
1436;SDS011;712;51.026;13.792;2023-06-14T00:53:10;6.20;;;2.25;;
1436;SDS011;712;51.026;13.792;2023-06-14T00:55:36;4.18;;;1.60;;
1436;SDS011;712;51.026;13.792;2023-06-14T00:58:01;4.23;;;1.50;;
1436;SDS011;712;51.026;13.792;2023-06-14T01:00:26;4.10;;;1.80;;
1436;SDS011;712;51.026;13.792;2023-06-14T01:02:53;4.38;;;1.85;;
1436;SDS011;712;51.026;13.792;2023-06-14T01:05:18;5.60;;;1.92;;
1436;SDS011;712;51.026;13.792;2023-06-14T01:07:51;6.57;;;1.98;;
1436;SDS011;712;51.026;13.792;2023-06-14T01:12:54;4.63;;;2.03;;
1436;SDS011;712;51.026;13.792;2023-06-14T01:15:21;5.80;;;1.80;;
1436;SDS011;712;51.026;13.792;2023-06-14T01:17:46;4.40;;;1.90;;
1436;SDS011;712;51.026;13.792;2023-06-14T01:20:16;4.95;;;2.00;;
1436;SDS011;712;51.026;13.792;2023-06-14T01:22:54;4.43;;;1.90;;
1436;SDS011;712;51.026;13.792;2023-06-14T01:25:19;5.05;;;1.90;;
1436;SDS011;712;51.026;13.792;2023-06-14T01:27:48;5.72;;;2.30;;
1436;SDS011;712;51.026;13.792;2023-06-14T01:30:14;7.10;;;2.22;;
1436;SDS011;712;51.026;13.792;2023-06-14T01:32:40;6.95;;;2.10;;
1436;SDS011;712;51.026;13.792;2023-06-14T01:35:05;6.22;;;2.20;;
1436;SDS011;712;51.026;13.792;2023-06-14T01:37:30;4.90;;;2.00;;
1436;SDS011;712;51.026;13.792;2023-06-14T01:39:56;4.60;;;1.90;;
1436;SDS011;712;51.026;13.792;2023-06-14T01:42:21;4.25;;;2.20;;
1436;SDS011;712;51.026;13.792;2023-06-14T01:44:47;6.68;;;1.90;;
1436;SDS011;712;51.026;13.792;2023-06-14T01:47:13;6.73;;;2.30;;
1436;SDS011;712;51.026;13.792;2023-06-14T01:49:39;7.55;;;2.45;;
1436;SDS011;712;51.026;13.792;2023-06-14T01:52:05;6.15;;;2.10;;
1436;SDS011;712;51.026;13.792;2023-06-14T01:54:31;4.97;;;2.03;;
1436;SDS011;712;51.026;13.792;2023-06-14T01:56:56;5.80;;;2.28;;
1436;SDS011;712;51.026;13.792;2023-06-14T01:59:21;6.65;;;2.30;;
1436;SDS011;712;51.026;13.792;2023-06-14T02:01:46;5.03;;;2.17;;
1436;SDS011;712;51.026;13.792;2023-06-14T02:04:12;4.90;;;2.20;;
1436;SDS011;712;51.026;13.792;2023-06-14T02:06:37;4.68;;;2.00;;
1436;SDS011;712;51.026;13.792;2023-06-14T02:09:02;5.10;;;2.40;;
1436;SDS011;712;51.026;13.792;2023-06-14T02:11:28;5.00;;;2.10;;
1436;SDS011;712;51.026;13.792;2023-06-14T02:13:53;4.10;;;1.92;;
1436;SDS011;712;51.026;13.792;2023-06-14T02:16:18;5.63;;;1.80;;
1436;SDS011;712;51.026;13.792;2023-06-14T02:18:43;4.85;;;2.00;;
1436;SDS011;712;51.026;13.792;2023-06-14T02:21:08;5.00;;;2.20;;
1436;SDS011;712;51.026;13.792;2023-06-14T02:23:33;6.63;;;2.37;;
1436;SDS011;712;51.026;13.792;2023-06-14T02:25:58;6.10;;;2.40;;
1436;SDS011;712;51.026;13.792;2023-06-14T02:28:24;6.63;;;2.63;;
1436;SDS011;712;51.026;13.792;2023-06-14T02:30:49;5.85;;;2.30;;
1436;SDS011;712;51.026;13.792;2023-06-14T02:33:14;4.73;;;2.30;;
1436;SDS011;712;51.026;13.792;2023-06-14T02:35:40;5.68;;;2.10;;
1436;SDS011;712;51.026;13.792;2023-06-14T02:38:05;5.80;;;2.50;;
1436;SDS011;712;51.026;13.792;2023-06-14T02:40:30;5.28;;;2.15;;
1436;SDS011;712;51.026;13.792;2023-06-14T02:42:55;7.63;;;2.63;;
1436;SDS011;712;51.026;13.792;2023-06-14T02:45:20;5.57;;;2.20;;
1436;SDS011;712;51.026;13.792;2023-06-14T02:47:46;4.88;;;2.13;;
1436;SDS011;712;51.026;13.792;2023-06-14T02:50:11;4.73;;;2.43;;
1436;SDS011;712;51.026;13.792;2023-06-14T02:52:36;5.28;;;2.30;;
1436;SDS011;712;51.026;13.792;2023-06-14T02:55:01;5.85;;;2.30;;
1436;SDS011;712;51.026;13.792;2023-06-14T02:57:27;6.13;;;2.90;;
1436;SDS011;712;51.026;13.792;2023-06-14T02:59:52;6.32;;;2.60;;
1436;SDS011;712;51.026;13.792;2023-06-14T03:02:17;5.53;;;2.20;;
1436;SDS011;712;51.026;13.792;2023-06-14T03:04:42;5.05;;;2.33;;
1436;SDS011;712;51.026;13.792;2023-06-14T03:07:09;4.80;;;2.28;;
1436;SDS011;712;51.026;13.792;2023-06-14T03:09:35;5.45;;;2.13;;
1436;SDS011;712;51.026;13.792;2023-06-14T03:12:02;7.32;;;2.45;;
1436;SDS011;712;51.026;13.792;2023-06-14T03:14:27;5.75;;;2.78;;
1436;SDS011;712;51.026;13.792;2023-06-14T03:16:54;7.88;;;2.42;;
1436;SDS011;712;51.026;13.792;2023-06-14T03:19:21;5.97;;;2.22;;
1436;SDS011;712;51.026;13.792;2023-06-14T03:21:46;6.00;;;2.40;;
1436;SDS011;712;51.026;13.792;2023-06-14T03:24:12;6.05;;;2.50;;
1436;SDS011;712;51.026;13.792;2023-06-14T03:26:37;7.07;;;2.47;;
1436;SDS011;712;51.026;13.792;2023-06-14T03:29:02;5.57;;;2.10;;
1436;SDS011;712;51.026;13.792;2023-06-14T03:31:28;6.75;;;2.38;;
1436;SDS011;712;51.026;13.792;2023-06-14T03:33:57;6.57;;;2.60;;
1436;SDS011;712;51.026;13.792;2023-06-14T03:36:22;5.63;;;2.10;;
1436;SDS011;712;51.026;13.792;2023-06-14T03:38:47;4.22;;;2.05;;
1436;SDS011;712;51.026;13.792;2023-06-14T03:41:12;5.00;;;2.43;;
1436;SDS011;712;51.026;13.792;2023-06-14T03:43:38;5.18;;;2.30;;
1436;SDS011;712;51.026;13.792;2023-06-14T03:46:03;5.00;;;2.58;;
1436;SDS011;712;51.026;13.792;2023-06-14T03:48:28;4.60;;;2.13;;
1436;SDS011;712;51.026;13.792;2023-06-14T03:50:53;4.85;;;2.25;;
1436;SDS011;712;51.026;13.792;2023-06-14T03:53:19;4.70;;;2.20;;
1436;SDS011;712;51.026;13.792;2023-06-14T03:55:48;4.70;;;2.10;;
1436;SDS011;712;51.026;13.792;2023-06-14T03:58:13;5.60;;;2.30;;
1436;SDS011;712;51.026;13.792;2023-06-14T04:00:39;5.97;;;2.50;;
1436;SDS011;712;51.026;13.792;2023-06-14T04:03:05;5.93;;;2.20;;
1436;SDS011;712;51.026;13.792;2023-06-14T04:05:30;8.18;;;2.40;;
1436;SDS011;712;51.026;13.792;2023-06-14T04:07:56;5.70;;;2.15;;
1436;SDS011;712;51.026;13.792;2023-06-14T04:10:22;6.15;;;2.58;;
1436;SDS011;712;51.026;13.792;2023-06-14T04:12:47;9.30;;;2.77;;
1436;SDS011;712;51.026;13.792;2023-06-14T04:15:12;6.30;;;2.72;;
1436;SDS011;712;51.026;13.792;2023-06-14T04:17:37;5.50;;;2.40;;
1436;SDS011;712;51.026;13.792;2023-06-14T04:20:03;4.60;;;2.15;;
1436;SDS011;712;51.026;13.792;2023-06-14T04:22:30;6.72;;;2.50;;
1436;SDS011;712;51.026;13.792;2023-06-14T04:24:56;6.57;;;2.28;;
1436;SDS011;712;51.026;13.792;2023-06-14T04:27:22;6.40;;;2.13;;
1436;SDS011;712;51.026;13.792;2023-06-14T04:29:49;4.70;;;2.10;;
1436;SDS011;712;51.026;13.792;2023-06-14T04:32:18;5.70;;;2.50;;
1436;SDS011;712;51.026;13.792;2023-06-14T04:34:43;6.68;;;2.60;;
1436;SDS011;712;51.026;13.792;2023-06-14T04:37:09;4.93;;;2.37;;
1436;SDS011;712;51.026;13.792;2023-06-14T04:39:34;5.85;;;2.40;;
1436;SDS011;712;51.026;13.792;2023-06-14T04:42:00;5.38;;;2.30;;
1436;SDS011;712;51.026;13.792;2023-06-14T04:44:25;5.40;;;2.70;;
1436;SDS011;712;51.026;13.792;2023-06-14T04:46:55;5.00;;;2.63;;
1436;SDS011;712;51.026;13.792;2023-06-14T04:49:21;6.05;;;2.70;;
1436;SDS011;712;51.026;13.792;2023-06-14T04:51:48;4.85;;;2.50;;
1436;SDS011;712;51.026;13.792;2023-06-14T04:54:15;6.00;;;2.95;;
1436;SDS011;712;51.026;13.792;2023-06-14T04:56:41;5.18;;;2.80;;
1436;SDS011;712;51.026;13.792;2023-06-14T04:59:13;5.63;;;2.85;;
1436;SDS011;712;51.026;13.792;2023-06-14T05:01:39;6.13;;;2.80;;
1436;SDS011;712;51.026;13.792;2023-06-14T05:04:05;7.38;;;2.88;;
1436;SDS011;712;51.026;13.792;2023-06-14T05:06:30;5.83;;;3.00;;
1436;SDS011;712;51.026;13.792;2023-06-14T05:08:56;6.85;;;2.75;;
1436;SDS011;712;51.026;13.792;2023-06-14T05:11:21;5.70;;;2.67;;
1436;SDS011;712;51.026;13.792;2023-06-14T05:13:48;5.68;;;2.92;;
1436;SDS011;712;51.026;13.792;2023-06-14T05:16:14;7.55;;;3.03;;
1436;SDS011;712;51.026;13.792;2023-06-14T05:18:40;5.68;;;3.00;;
1436;SDS011;712;51.026;13.792;2023-06-14T05:21:06;5.35;;;3.10;;
1436;SDS011;712;51.026;13.792;2023-06-14T05:23:31;6.23;;;3.00;;
1436;SDS011;712;51.026;13.792;2023-06-14T05:25:56;6.82;;;3.75;;
1436;SDS011;712;51.026;13.792;2023-06-14T05:28:21;7.83;;;3.13;;
1436;SDS011;712;51.026;13.792;2023-06-14T05:30:47;6.13;;;3.20;;
1436;SDS011;712;51.026;13.792;2023-06-14T05:33:12;7.10;;;2.75;;
1436;SDS011;712;51.026;13.792;2023-06-14T05:35:37;5.83;;;2.73;;
1436;SDS011;712;51.026;13.792;2023-06-14T05:38:02;6.13;;;3.03;;
1436;SDS011;712;51.026;13.792;2023-06-14T05:40:28;5.50;;;3.00;;
1436;SDS011;712;51.026;13.792;2023-06-14T05:42:53;5.70;;;3.20;;
1436;SDS011;712;51.026;13.792;2023-06-14T05:45:18;7.68;;;3.10;;
1436;SDS011;712;51.026;13.792;2023-06-14T05:47:43;5.10;;;2.78;;
1436;SDS011;712;51.026;13.792;2023-06-14T05:50:08;10.35;;;3.47;;
1436;SDS011;712;51.026;13.792;2023-06-14T05:52:34;7.93;;;3.42;;
1436;SDS011;712;51.026;13.792;2023-06-14T05:54:59;6.10;;;3.20;;
1436;SDS011;712;51.026;13.792;2023-06-14T05:57:25;6.53;;;3.08;;
1436;SDS011;712;51.026;13.792;2023-06-14T05:59:50;5.90;;;2.80;;
1436;SDS011;712;51.026;13.792;2023-06-14T06:02:16;8.15;;;2.97;;
1436;SDS011;712;51.026;13.792;2023-06-14T06:04:41;6.38;;;3.03;;
1436;SDS011;712;51.026;13.792;2023-06-14T06:07:06;5.78;;;3.10;;
1436;SDS011;712;51.026;13.792;2023-06-14T06:09:32;6.78;;;3.10;;
1436;SDS011;712;51.026;13.792;2023-06-14T06:11:57;7.18;;;3.40;;
1436;SDS011;712;51.026;13.792;2023-06-14T06:14:22;7.13;;;3.45;;
1436;SDS011;712;51.026;13.792;2023-06-14T06:16:47;6.28;;;3.30;;
1436;SDS011;712;51.026;13.792;2023-06-14T06:19:13;8.07;;;3.40;;
1436;SDS011;712;51.026;13.792;2023-06-14T06:21:38;7.63;;;3.57;;
1436;SDS011;712;51.026;13.792;2023-06-14T06:24:04;8.23;;;3.10;;
1436;SDS011;712;51.026;13.792;2023-06-14T06:26:30;5.70;;;3.38;;
1436;SDS011;712;51.026;13.792;2023-06-14T06:28:55;6.28;;;3.60;;
1436;SDS011;712;51.026;13.792;2023-06-14T06:33:47;6.18;;;3.30;;
1436;SDS011;712;51.026;13.792;2023-06-14T06:36:12;7.22;;;3.50;;
1436;SDS011;712;51.026;13.792;2023-06-14T06:38:37;9.13;;;3.70;;
1436;SDS011;712;51.026;13.792;2023-06-14T06:41:02;6.05;;;3.22;;
1436;SDS011;712;51.026;13.792;2023-06-14T06:43:28;5.60;;;2.97;;
1436;SDS011;712;51.026;13.792;2023-06-14T06:45:53;5.17;;;2.80;;
1436;SDS011;712;51.026;13.792;2023-06-14T06:48:18;6.00;;;3.10;;
1436;SDS011;712;51.026;13.792;2023-06-14T06:50:43;5.65;;;3.05;;
1436;SDS011;712;51.026;13.792;2023-06-14T06:53:08;5.60;;;2.97;;
1436;SDS011;712;51.026;13.792;2023-06-14T06:55:33;7.07;;;3.30;;
1436;SDS011;712;51.026;13.792;2023-06-14T06:57:58;7.60;;;3.03;;
1436;SDS011;712;51.026;13.792;2023-06-14T07:00:25;7.78;;;3.45;;
1436;SDS011;712;51.026;13.792;2023-06-14T07:02:50;6.40;;;3.20;;
1436;SDS011;712;51.026;13.792;2023-06-14T07:05:15;7.78;;;2.92;;
1436;SDS011;712;51.026;13.792;2023-06-14T07:07:41;18.08;;;3.42;;
1436;SDS011;712;51.026;13.792;2023-06-14T07:10:06;5.70;;;2.63;;
1436;SDS011;712;51.026;13.792;2023-06-14T07:12:32;7.60;;;3.05;;
1436;SDS011;712;51.026;13.792;2023-06-14T07:17:23;8.32;;;3.25;;
1436;SDS011;712;51.026;13.792;2023-06-14T07:19:49;7.93;;;3.08;;
1436;SDS011;712;51.026;13.792;2023-06-14T07:22:14;6.55;;;3.50;;
1436;SDS011;712;51.026;13.792;2023-06-14T07:24:39;7.67;;;2.80;;
1436;SDS011;712;51.026;13.792;2023-06-14T07:27:05;5.72;;;3.17;;
1436;SDS011;712;51.026;13.792;2023-06-14T07:29:30;4.83;;;2.80;;
1436;SDS011;712;51.026;13.792;2023-06-14T07:31:55;5.75;;;3.20;;
1436;SDS011;712;51.026;13.792;2023-06-14T07:34:20;6.32;;;3.03;;
1436;SDS011;712;51.026;13.792;2023-06-14T07:36:46;5.95;;;2.85;;
1436;SDS011;712;51.026;13.792;2023-06-14T07:39:11;8.33;;;3.03;;
1436;SDS011;712;51.026;13.792;2023-06-14T07:41:36;6.63;;;3.00;;
1436;SDS011;712;51.026;13.792;2023-06-14T07:44:01;5.60;;;2.90;;
1436;SDS011;712;51.026;13.792;2023-06-14T07:46:27;4.85;;;2.38;;
1436;SDS011;712;51.026;13.792;2023-06-14T07:48:52;7.33;;;2.90;;
1436;SDS011;712;51.026;13.792;2023-06-14T07:51:17;5.10;;;2.70;;
1436;SDS011;712;51.026;13.792;2023-06-14T07:53:42;5.85;;;2.60;;
1436;SDS011;712;51.026;13.792;2023-06-14T07:56:08;5.45;;;2.75;;
1436;SDS011;712;51.026;13.792;2023-06-14T07:58:33;4.20;;;2.13;;
1436;SDS011;712;51.026;13.792;2023-06-14T08:00:58;3.85;;;2.00;;
1436;SDS011;712;51.026;13.792;2023-06-14T08:03:24;4.68;;;2.42;;
1436;SDS011;712;51.026;13.792;2023-06-14T08:05:50;4.80;;;2.30;;
1436;SDS011;712;51.026;13.792;2023-06-14T08:08:15;4.50;;;2.00;;
1436;SDS011;712;51.026;13.792;2023-06-14T08:10:40;5.28;;;2.30;;
1436;SDS011;712;51.026;13.792;2023-06-14T08:13:05;5.30;;;2.20;;
1436;SDS011;712;51.026;13.792;2023-06-14T08:15:31;4.82;;;2.00;;
1436;SDS011;712;51.026;13.792;2023-06-14T08:17:56;4.05;;;1.77;;
1436;SDS011;712;51.026;13.792;2023-06-14T08:20:21;5.97;;;2.00;;
1436;SDS011;712;51.026;13.792;2023-06-14T08:22:46;5.57;;;2.40;;
1436;SDS011;712;51.026;13.792;2023-06-14T08:25:12;6.60;;;2.03;;
1436;SDS011;712;51.026;13.792;2023-06-14T08:27:37;4.22;;;1.98;;
1436;SDS011;712;51.026;13.792;2023-06-14T08:30:02;4.67;;;1.90;;
1436;SDS011;712;51.026;13.792;2023-06-14T08:32:28;4.65;;;1.73;;
1436;SDS011;712;51.026;13.792;2023-06-14T08:34:53;4.10;;;1.73;;
1436;SDS011;712;51.026;13.792;2023-06-14T08:37:18;5.18;;;1.75;;
1436;SDS011;712;51.026;13.792;2023-06-14T08:39:43;4.23;;;1.70;;
1436;SDS011;712;51.026;13.792;2023-06-14T08:42:09;4.32;;;1.88;;
1436;SDS011;712;51.026;13.792;2023-06-14T08:44:35;4.25;;;1.90;;
1436;SDS011;712;51.026;13.792;2023-06-14T08:47:00;4.25;;;1.75;;
1436;SDS011;712;51.026;13.792;2023-06-14T08:49:26;4.00;;;1.80;;
1436;SDS011;712;51.026;13.792;2023-06-14T08:51:58;4.15;;;2.05;;
1436;SDS011;712;51.026;13.792;2023-06-14T08:54:25;4.43;;;2.03;;
1436;SDS011;712;51.026;13.792;2023-06-14T08:56:52;4.13;;;2.00;;
1436;SDS011;712;51.026;13.792;2023-06-14T08:59:18;5.47;;;2.03;;
1436;SDS011;712;51.026;13.792;2023-06-14T09:01:43;6.03;;;2.35;;
1436;SDS011;712;51.026;13.792;2023-06-14T09:04:10;7.28;;;2.10;;
1436;SDS011;712;51.026;13.792;2023-06-14T09:06:35;4.90;;;2.10;;
1436;SDS011;712;51.026;13.792;2023-06-14T09:11:29;4.18;;;2.10;;
1436;SDS011;712;51.026;13.792;2023-06-14T09:13:55;4.65;;;2.13;;
1436;SDS011;712;51.026;13.792;2023-06-14T09:16:20;4.83;;;2.10;;
1436;SDS011;712;51.026;13.792;2023-06-14T09:18:46;4.57;;;2.00;;
1436;SDS011;712;51.026;13.792;2023-06-14T09:21:14;4.45;;;1.73;;
1436;SDS011;712;51.026;13.792;2023-06-14T09:23:41;4.75;;;1.80;;
1436;SDS011;712;51.026;13.792;2023-06-14T09:26:10;4.80;;;1.80;;
1436;SDS011;712;51.026;13.792;2023-06-14T09:28:36;4.50;;;2.10;;
1436;SDS011;712;51.026;13.792;2023-06-14T09:31:01;5.35;;;2.15;;
1436;SDS011;712;51.026;13.792;2023-06-14T09:33:27;5.63;;;2.38;;
1436;SDS011;712;51.026;13.792;2023-06-14T09:35:52;5.05;;;2.65;;
1436;SDS011;712;51.026;13.792;2023-06-14T09:40:44;5.32;;;2.40;;
1436;SDS011;712;51.026;13.792;2023-06-14T09:43:09;6.77;;;2.60;;
1436;SDS011;712;51.026;13.792;2023-06-14T09:45:34;6.25;;;2.20;;
1436;SDS011;712;51.026;13.792;2023-06-14T09:48:00;5.47;;;2.90;;
1436;SDS011;712;51.026;13.792;2023-06-14T09:50:25;5.20;;;2.60;;
1436;SDS011;712;51.026;13.792;2023-06-14T09:52:51;5.57;;;2.70;;
1436;SDS011;712;51.026;13.792;2023-06-14T09:55:17;6.47;;;2.40;;
1436;SDS011;712;51.026;13.792;2023-06-14T09:57:43;5.50;;;2.40;;
1436;SDS011;712;51.026;13.792;2023-06-14T10:00:10;5.32;;;2.55;;
1436;SDS011;712;51.026;13.792;2023-06-14T10:02:37;5.22;;;2.20;;
1436;SDS011;712;51.026;13.792;2023-06-14T10:07:30;5.77;;;2.20;;
1436;SDS011;712;51.026;13.792;2023-06-14T10:09:56;4.70;;;1.85;;
1436;SDS011;712;51.026;13.792;2023-06-14T10:12:22;4.90;;;2.10;;
1436;SDS011;712;51.026;13.792;2023-06-14T10:14:51;4.25;;;1.95;;
1436;SDS011;712;51.026;13.792;2023-06-14T10:17:26;4.45;;;1.95;;
1436;SDS011;712;51.026;13.792;2023-06-14T10:19:56;4.80;;;2.00;;
1436;SDS011;712;51.026;13.792;2023-06-14T10:22:25;5.00;;;2.17;;
1436;SDS011;712;51.026;13.792;2023-06-14T10:24:51;4.65;;;1.98;;
1436;SDS011;712;51.026;13.792;2023-06-14T10:27:16;4.70;;;2.00;;
1436;SDS011;712;51.026;13.792;2023-06-14T10:32:20;4.68;;;2.03;;
1436;SDS011;712;51.026;13.792;2023-06-14T10:34:49;6.50;;;2.10;;
1436;SDS011;712;51.026;13.792;2023-06-14T10:37:18;5.10;;;1.85;;
1436;SDS011;712;51.026;13.792;2023-06-14T10:39:43;5.73;;;1.70;;
1436;SDS011;712;51.026;13.792;2023-06-14T10:42:10;5.13;;;2.00;;
1436;SDS011;712;51.026;13.792;2023-06-14T10:44:39;5.50;;;2.07;;
1436;SDS011;712;51.026;13.792;2023-06-14T10:49:56;4.90;;;1.90;;
1436;SDS011;712;51.026;13.792;2023-06-14T10:52:23;4.82;;;2.00;;
1436;SDS011;712;51.026;13.792;2023-06-14T10:55:08;4.40;;;2.22;;
1436;SDS011;712;51.026;13.792;2023-06-14T10:57:42;5.32;;;2.00;;
1436;SDS011;712;51.026;13.792;2023-06-14T11:00:08;4.80;;;2.10;;
1436;SDS011;712;51.026;13.792;2023-06-14T11:05:26;7.07;;;2.42;;
1436;SDS011;712;51.026;13.792;2023-06-14T11:08:07;5.88;;;2.45;;
1436;SDS011;712;51.026;13.792;2023-06-14T11:13:02;5.63;;;2.22;;
1436;SDS011;712;51.026;13.792;2023-06-14T11:15:31;5.80;;;2.10;;
1436;SDS011;712;51.026;13.792;2023-06-14T11:17:56;4.63;;;2.10;;
1436;SDS011;712;51.026;13.792;2023-06-14T11:20:24;5.97;;;2.40;;
1436;SDS011;712;51.026;13.792;2023-06-14T11:22:50;5.75;;;2.40;;
1436;SDS011;712;51.026;13.792;2023-06-14T11:25:16;6.38;;;2.90;;
1436;SDS011;712;51.026;13.792;2023-06-14T11:27:41;5.13;;;2.67;;
1436;SDS011;712;51.026;13.792;2023-06-14T11:30:07;7.40;;;2.83;;
1436;SDS011;712;51.026;13.792;2023-06-14T11:32:32;6.07;;;2.72;;
1436;SDS011;712;51.026;13.792;2023-06-14T11:34:57;5.10;;;2.57;;
1436;SDS011;712;51.026;13.792;2023-06-14T11:37:24;4.88;;;2.90;;
1436;SDS011;712;51.026;13.792;2023-06-14T11:39:51;5.03;;;2.63;;
1436;SDS011;712;51.026;13.792;2023-06-14T11:42:16;4.93;;;2.70;;
1436;SDS011;712;51.026;13.792;2023-06-14T11:44:41;5.13;;;2.72;;
1436;SDS011;712;51.026;13.792;2023-06-14T11:47:06;5.43;;;2.50;;
1436;SDS011;712;51.026;13.792;2023-06-14T11:49:35;6.10;;;2.70;;
1436;SDS011;712;51.026;13.792;2023-06-14T11:52:00;7.05;;;2.50;;
1436;SDS011;712;51.026;13.792;2023-06-14T11:54:25;6.10;;;2.83;;
1436;SDS011;712;51.026;13.792;2023-06-14T11:56:50;5.37;;;2.73;;
1436;SDS011;712;51.026;13.792;2023-06-14T11:59:16;4.80;;;2.53;;
1436;SDS011;712;51.026;13.792;2023-06-14T12:01:42;5.63;;;2.73;;
1436;SDS011;712;51.026;13.792;2023-06-14T12:04:07;6.28;;;2.55;;
1436;SDS011;712;51.026;13.792;2023-06-14T12:06:32;4.97;;;2.63;;
1436;SDS011;712;51.026;13.792;2023-06-14T12:08:58;5.32;;;2.70;;
1436;SDS011;712;51.026;13.792;2023-06-14T12:11:23;5.32;;;2.90;;
1436;SDS011;712;51.026;13.792;2023-06-14T12:13:49;7.17;;;2.90;;
1436;SDS011;712;51.026;13.792;2023-06-14T12:16:14;5.28;;;2.70;;
1436;SDS011;712;51.026;13.792;2023-06-14T12:18:39;6.85;;;2.78;;
1436;SDS011;712;51.026;13.792;2023-06-14T12:21:06;6.53;;;2.80;;
1436;SDS011;712;51.026;13.792;2023-06-14T12:23:49;6.32;;;2.90;;
1436;SDS011;712;51.026;13.792;2023-06-14T12:26:15;7.57;;;3.13;;
1436;SDS011;712;51.026;13.792;2023-06-14T12:28:41;6.15;;;2.70;;
1436;SDS011;712;51.026;13.792;2023-06-14T12:31:09;5.55;;;2.85;;
1436;SDS011;712;51.026;13.792;2023-06-14T12:33:34;5.13;;;2.80;;
1436;SDS011;712;51.026;13.792;2023-06-14T12:36:02;6.45;;;3.13;;
1436;SDS011;712;51.026;13.792;2023-06-14T12:38:27;7.05;;;3.30;;
1436;SDS011;712;51.026;13.792;2023-06-14T12:40:53;5.40;;;3.08;;
1436;SDS011;712;51.026;13.792;2023-06-14T12:43:18;5.32;;;2.85;;
1436;SDS011;712;51.026;13.792;2023-06-14T12:45:43;4.78;;;2.65;;
1436;SDS011;712;51.026;13.792;2023-06-14T12:48:09;4.90;;;2.63;;
1436;SDS011;712;51.026;13.792;2023-06-14T12:50:34;5.03;;;2.25;;
1436;SDS011;712;51.026;13.792;2023-06-14T12:52:59;5.07;;;2.50;;
1436;SDS011;712;51.026;13.792;2023-06-14T12:55:24;4.93;;;2.33;;
1436;SDS011;712;51.026;13.792;2023-06-14T12:57:49;5.53;;;2.58;;
1436;SDS011;712;51.026;13.792;2023-06-14T13:00:16;4.93;;;2.50;;
1436;SDS011;712;51.026;13.792;2023-06-14T13:02:42;5.15;;;2.53;;
1436;SDS011;712;51.026;13.792;2023-06-14T13:05:08;5.43;;;2.53;;
1436;SDS011;712;51.026;13.792;2023-06-14T13:07:33;4.83;;;2.53;;
1436;SDS011;712;51.026;13.792;2023-06-14T13:09:58;7.45;;;2.67;;
1436;SDS011;712;51.026;13.792;2023-06-14T13:12:24;5.30;;;2.38;;
1436;SDS011;712;51.026;13.792;2023-06-14T13:14:49;6.00;;;2.70;;
1436;SDS011;712;51.026;13.792;2023-06-14T13:17:14;4.87;;;2.50;;
1436;SDS011;712;51.026;13.792;2023-06-14T13:19:39;4.40;;;2.30;;
1436;SDS011;712;51.026;13.792;2023-06-14T13:22:04;5.33;;;2.40;;
1436;SDS011;712;51.026;13.792;2023-06-14T13:24:30;6.10;;;2.50;;
1436;SDS011;712;51.026;13.792;2023-06-14T13:26:56;4.78;;;2.35;;
1436;SDS011;712;51.026;13.792;2023-06-14T13:29:22;6.03;;;2.40;;
1436;SDS011;712;51.026;13.792;2023-06-14T13:34:12;5.38;;;2.92;;
1436;SDS011;712;51.026;13.792;2023-06-14T13:36:38;6.53;;;3.30;;
1436;SDS011;712;51.026;13.792;2023-06-14T13:39:03;6.65;;;3.00;;
1436;SDS011;712;51.026;13.792;2023-06-14T13:41:29;6.57;;;3.00;;
1436;SDS011;712;51.026;13.792;2023-06-14T13:44:00;7.72;;;2.90;;
1436;SDS011;712;51.026;13.792;2023-06-14T13:46:25;5.30;;;2.63;;
1436;SDS011;712;51.026;13.792;2023-06-14T13:48:50;7.13;;;2.67;;
1436;SDS011;712;51.026;13.792;2023-06-14T13:51:16;4.93;;;2.73;;
1436;SDS011;712;51.026;13.792;2023-06-14T13:53:45;4.43;;;2.63;;
1436;SDS011;712;51.026;13.792;2023-06-14T13:56:10;5.03;;;2.55;;
1436;SDS011;712;51.026;13.792;2023-06-14T13:58:37;6.25;;;2.65;;
1436;SDS011;712;51.026;13.792;2023-06-14T14:03:27;6.05;;;2.28;;
1436;SDS011;712;51.026;13.792;2023-06-14T14:05:52;5.03;;;2.40;;
1436;SDS011;712;51.026;13.792;2023-06-14T14:08:18;5.70;;;2.60;;
1436;SDS011;712;51.026;13.792;2023-06-14T14:10:43;4.35;;;2.10;;
1436;SDS011;712;51.026;13.792;2023-06-14T14:13:09;7.53;;;2.20;;
1436;SDS011;712;51.026;13.792;2023-06-14T14:15:34;6.50;;;2.20;;
1436;SDS011;712;51.026;13.792;2023-06-14T14:17:59;6.10;;;2.10;;
1436;SDS011;712;51.026;13.792;2023-06-14T14:20:24;5.23;;;2.00;;
1436;SDS011;712;51.026;13.792;2023-06-14T14:22:50;4.43;;;2.23;;
1436;SDS011;712;51.026;13.792;2023-06-14T14:25:15;5.63;;;2.10;;
1436;SDS011;712;51.026;13.792;2023-06-14T14:27:40;3.93;;;2.00;;
1436;SDS011;712;51.026;13.792;2023-06-14T14:30:05;6.72;;;2.00;;
1436;SDS011;712;51.026;13.792;2023-06-14T14:32:31;5.68;;;2.20;;
1436;SDS011;712;51.026;13.792;2023-06-14T14:34:56;6.73;;;2.40;;
1436;SDS011;712;51.026;13.792;2023-06-14T14:37:21;4.50;;;2.10;;
1436;SDS011;712;51.026;13.792;2023-06-14T14:39:46;4.40;;;1.77;;
1436;SDS011;712;51.026;13.792;2023-06-14T14:42:12;4.63;;;1.80;;
1436;SDS011;712;51.026;13.792;2023-06-14T14:44:37;4.30;;;2.20;;
1436;SDS011;712;51.026;13.792;2023-06-14T14:47:03;6.57;;;2.10;;
1436;SDS011;712;51.026;13.792;2023-06-14T14:49:28;5.20;;;2.23;;
1436;SDS011;712;51.026;13.792;2023-06-14T14:51:53;3.95;;;1.88;;
1436;SDS011;712;51.026;13.792;2023-06-14T14:54:18;5.03;;;2.00;;
1436;SDS011;712;51.026;13.792;2023-06-14T14:56:43;4.60;;;2.10;;
1436;SDS011;712;51.026;13.792;2023-06-14T14:59:08;4.60;;;2.00;;
1436;SDS011;712;51.026;13.792;2023-06-14T15:01:34;4.77;;;2.30;;
1436;SDS011;712;51.026;13.792;2023-06-14T15:03:59;4.95;;;2.05;;
1436;SDS011;712;51.026;13.792;2023-06-14T15:06:24;4.40;;;2.10;;
1436;SDS011;712;51.026;13.792;2023-06-14T15:08:49;5.13;;;2.30;;
1436;SDS011;712;51.026;13.792;2023-06-14T15:11:15;4.15;;;2.10;;
1436;SDS011;712;51.026;13.792;2023-06-14T15:13:41;5.40;;;2.20;;
1436;SDS011;712;51.026;13.792;2023-06-14T15:16:06;5.32;;;2.40;;
1436;SDS011;712;51.026;13.792;2023-06-14T15:18:31;4.80;;;2.17;;
1436;SDS011;712;51.026;13.792;2023-06-14T15:20:56;5.45;;;2.30;;
1436;SDS011;712;51.026;13.792;2023-06-14T15:23:21;4.73;;;2.23;;
1436;SDS011;712;51.026;13.792;2023-06-14T15:25:47;5.85;;;2.30;;
1436;SDS011;712;51.026;13.792;2023-06-14T15:28:12;5.13;;;2.53;;
1436;SDS011;712;51.026;13.792;2023-06-14T15:30:38;4.80;;;2.30;;
1436;SDS011;712;51.026;13.792;2023-06-14T15:33:03;5.13;;;2.33;;
1436;SDS011;712;51.026;13.792;2023-06-14T15:35:28;6.70;;;2.20;;
1436;SDS011;712;51.026;13.792;2023-06-14T15:37:53;4.10;;;2.00;;